Time;durP1;ratioP1;P1;durP2;ratioP2;P2;SDS_P1;SDS_P2;PMS_P1;PMS_P2;Temp;Humidity;BMP_temperature;BMP_pressure;BME280_temperature;BME280_humidity;BME280_pressure;Samples;Min_cycle;Max_cycle;Signal;HPM_P1;HPM_P2
2022/01/29 00:00:33;;;;;;;;;;;-2.50;84.10;;;-3.96;80.38;96480.78;4010054;35;20125;-84
2022/01/29 00:03:02;;;;;;;;;;;-2.40;84.10;;;-3.98;80.17;96499.66;4009840;35;20088;-84
2022/01/29 00:05:30;;;;;;;;;;;-2.40;84.10;;;-3.95;80.08;96501.16;3984601;35;20566;-84
2022/01/29 00:07:59;;;;;;;;;;;-2.40;84.10;;;-3.96;80.21;96499.50;4006211;34;19905;-84
2022/01/29 00:10:27;;;;;;;;;;;-2.40;84.10;;;-3.96;79.99;96497.63;3984881;35;20210;-83
2022/01/29 00:12:56;;;;;;;;;;;-2.40;84.10;;;-3.98;80.44;96491.63;3986101;35;19905;-84
2022/01/29 00:15:26;;;;;;;;;;;-2.40;84.10;;;-3.96;80.59;96494.16;3987851;35;20520;-83
2022/01/29 00:17:54;;;;;;;;;;;-2.40;84.10;;;-3.95;80.26;96501.16;3987045;35;20478;-83
2022/01/29 00:20:22;;;;;;;;;;;-2.40;84.10;;;-3.95;80.04;96509.19;3986765;35;19912;-84
2022/01/29 00:22:51;;;;;;;;;;;-2.40;84.10;;;-3.94;80.28;96513.53;4008200;35;20220;-83
2022/01/29 00:25:19;;;;;;;;;;;-2.40;84.20;;;-3.96;79.86;96519.03;3986594;35;19905;-83
2022/01/29 00:27:48;;;;;;;;;;;-2.40;84.10;;;-3.95;80.22;96514.53;3985808;35;20959;-84
2022/01/29 00:30:18;;;;;;;;;;;-2.40;84.10;;;-3.95;80.13;96530.59;4007049;35;19912;-85
2022/01/29 00:32:48;;;;;;;;;;;-2.40;84.10;;;-3.94;79.89;96526.91;3986069;35;19905;-83
2022/01/29 00:35:16;;;;;;;;;;;-2.40;84.10;;;-3.95;80.14;96531.41;3985526;35;19904;-83
2022/01/29 00:37:45;;;;;;;;;;;-2.40;84.20;;;-3.96;80.08;96548.44;4006536;35;20230;-83
2022/01/29 00:40:14;;;;;;;;;;;-2.40;84.20;;;-3.95;80.32;96551.97;3984517;34;20128;-83
2022/01/29 00:42:42;;;;;;;;;;;-2.40;85.00;;;-3.95;79.94;96546.63;3985978;34;20215;-83
2022/01/29 00:45:11;;;;;;;;;;;-2.40;84.20;;;-3.94;80.34;96556.31;4007236;34;20203;-83
2022/01/29 00:47:40;;;;;;;;;;;-2.40;84.10;;;-3.94;80.16;96551.78;3985141;34;19912;-83
2022/01/29 00:50:11;;;;;;;;;;;-2.40;84.10;;;-3.95;80.20;96552.78;4007307;34;20248;-83
2022/01/29 00:52:39;;;;;;;;;;;-2.40;84.20;;;-3.95;80.18;96550.13;3986053;34;20219;-83
2022/01/29 00:55:09;;;;;;;;;;;-2.40;84.20;;;-3.95;80.28;96551.97;3985613;34;20104;-84
2022/01/29 00:57:39;;;;;;;;;;;-2.40;84.20;;;-3.94;80.13;96551.78;3982870;34;19909;-83
2022/01/29 01:00:10;;;;;;;;;;;-2.40;84.20;;;-3.94;80.23;96553.66;3979917;34;19905;-84
2022/01/29 01:02:38;;;;;;;;;;;-2.40;84.20;;;-3.94;79.80;96559.00;3981170;34;19905;-84
2022/01/29 01:05:09;;;;;;;;;;;-2.40;84.20;;;-3.95;80.15;96547.44;3981076;34;20242;-84
2022/01/29 01:07:37;;;;;;;;;;;-2.40;84.20;;;-3.93;80.06;96565.97;3986600;34;19915;-83
2022/01/29 01:10:07;;;;;;;;;;;-2.40;84.10;;;-3.93;79.96;96558.81;3986754;34;20233;-84
2022/01/29 01:12:35;;;;;;;;;;;-2.40;84.20;;;-3.94;80.34;96541.09;3986402;34;19912;-83
2022/01/29 01:15:05;;;;;;;;;;;-2.40;84.20;;;-3.93;79.88;96539.25;4008422;34;20215;-83
2022/01/29 01:17:33;;;;;;;;;;;-2.40;84.10;;;-3.93;80.58;96539.25;4011552;34;20223;-84
2022/01/29 01:20:02;;;;;;;;;;;-2.40;84.10;;;-3.93;80.00;96549.94;3990847;34;20246;-83
2022/01/29 01:22:32;;;;;;;;;;;-2.40;84.10;;;-3.93;80.34;96550.78;3991244;34;19905;-83
2022/01/29 01:25:00;;;;;;;;;;;-2.40;84.20;;;-3.93;79.77;96557.97;3990588;34;19905;-84
2022/01/29 01:27:29;;;;;;;;;;;-2.40;84.20;;;-3.92;80.91;96559.63;4011954;34;20248;-83
2022/01/29 01:29:57;;;;;;;;;;;-2.40;84.20;;;-3.93;80.29;96571.34;3990304;34;19912;-84
2022/01/29 01:32:26;;;;;;;;;;;-2.40;84.20;;;-3.92;80.06;96557.81;3990618;34;19912;-83
2022/01/29 01:34:57;;;;;;;;;;;-2.40;84.20;;;-3.92;80.46;96563.16;4012064;34;20104;-84
2022/01/29 01:37:35;;;;;;;;;;;-2.40;84.20;;;-3.92;80.26;96560.47;3990328;34;19905;-84
2022/01/29 01:40:07;;;;;;;;;;;-2.40;84.10;;;-3.91;80.33;96570.19;4012101;34;20217;-84
2022/01/29 01:42:36;;;;;;;;;;;-2.40;84.30;;;-3.92;80.30;96564.97;4012014;34;20248;-84
2022/01/29 01:45:06;;;;;;;;;;;-2.40;84.20;;;-3.90;79.77;96571.00;3989873;34;19905;-83
2022/01/29 01:47:34;;;;;;;;;;;-2.40;84.20;;;-3.91;80.13;96572.84;3989916;34;19912;-83
2022/01/29 01:50:04;;;;;;;;;;;-2.40;84.20;;;-3.90;80.14;96565.66;3990549;34;20214;-83
2022/01/29 01:52:32;;;;;;;;;;;-2.40;84.20;;;-3.91;80.29;96566.66;4011891;34;19905;-83
2022/01/29 01:55:01;;;;;;;;;;;-2.40;84.20;;;-3.91;80.09;96569.34;4010371;34;19905;-83
2022/01/29 01:57:31;;;;;;;;;;;-2.40;84.30;;;-3.93;80.39;96574.88;3987746;34;20227;-84
2022/01/29 01:59:59;;;;;;;;;;;-2.40;84.20;;;-3.92;80.24;96573.84;3988162;34;20217;-84
2022/01/29 02:02:27;;;;;;;;;;;-2.40;84.30;;;-3.90;80.09;96584.38;3989161;34;19912;-83
2022/01/29 02:04:56;;;;;;;;;;;-2.40;84.30;;;-3.90;80.39;96584.38;4012416;34;20215;-84
2022/01/29 02:07:25;;;;;;;;;;;-2.40;84.30;;;-3.90;80.29;96587.91;3990125;34;20105;-83
2022/01/29 02:09:53;;;;;;;;;;;-2.40;84.30;;;-3.89;80.54;96586.03;3990041;34;20523;-84
2022/01/29 02:12:24;;;;;;;;;;;-2.40;84.30;;;-3.90;80.51;96581.69;4011474;34;19915;-83
2022/01/29 02:14:56;;;;;;;;;;;-2.40;85.10;;;-3.90;80.47;96595.94;4009748;34;19905;-84
2022/01/29 02:17:25;;;;;;;;;;;-2.30;84.40;;;-3.90;80.73;96598.59;4009953;34;20259;-83
2022/01/29 02:19:53;;;;;;;;;;;-2.30;84.40;;;-3.89;80.36;96594.06;3987526;34;20211;-83
2022/01/29 02:22:23;;;;;;;;;;;-2.30;84.40;;;-3.88;80.30;96598.41;4009283;34;19909;-84
2022/01/29 02:24:52;;;;;;;;;;;-2.30;84.40;;;-3.89;80.49;96584.22;3987849;34;19909;-84
2022/01/29 02:27:20;;;;;;;;;;;-2.30;84.40;;;-3.89;80.55;96586.03;3988102;34;20511;-83
2022/01/29 02:29:50;;;;;;;;;;;-2.30;84.40;;;-3.89;80.09;96597.59;3987562;34;19971;-84
2022/01/29 02:32:18;;;;;;;;;;;-2.40;84.30;;;-3.88;80.53;96601.94;3987850;34;20200;-84
2022/01/29 02:34:47;;;;;;;;;;;-2.40;84.30;;;-3.89;80.05;96604.78;3987117;34;19913;-83
2022/01/29 02:37:15;;;;;;;;;;;-2.40;84.30;;;-3.89;80.35;96602.94;3987026;34;20223;-83
2022/01/29 02:39:45;;;;;;;;;;;-2.40;84.30;;;-3.89;80.11;96599.41;4008219;34;19904;-84
2022/01/29 02:42:13;;;;;;;;;;;-2.30;84.30;;;-3.89;80.23;96599.41;4009057;34;19905;-84
2022/01/29 02:44:42;;;;;;;;;;;-2.30;84.40;;;-3.88;80.50;96595.75;3987965;34;20223;-83
2022/01/29 02:47:26;;;;;;;;;;;-2.40;84.30;;;-3.89;80.38;96599.41;3987955;34;19905;-83
2022/01/29 02:49:55;;;;;;;;;;;-2.40;84.30;;;-3.87;80.25;96602.75;3989265;34;20206;-84
2022/01/29 02:52:23;;;;;;;;;;;-2.30;84.40;;;-3.89;80.54;96599.41;3989773;34;19905;-84
2022/01/29 02:54:53;;;;;;;;;;;-2.40;84.30;;;-3.88;80.10;96601.09;3992216;34;20259;-84
2022/01/29 02:57:22;;;;;;;;;;;-2.40;84.20;;;-3.88;80.70;96601.94;3989464;34;20239;-84
2022/01/29 02:59:51;;;;;;;;;;;-2.40;84.30;;;-3.90;80.27;96592.41;3990056;34;19997;-83
2022/01/29 03:02:20;;;;;;;;;;;-2.40;84.30;;;-3.88;80.42;96601.09;4010528;34;19905;-84
2022/01/29 03:04:48;;;;;;;;;;;-2.30;84.40;;;-3.88;80.30;96603.78;4032198;34;20214;-84
2022/01/29 03:07:17;;;;;;;;;;;-2.30;84.40;;;-3.87;80.27;96605.44;3987455;34;19905;-84
2022/01/29 03:09:45;;;;;;;;;;;-2.30;84.40;;;-3.89;80.38;96610.13;3986934;34;20217;-83
2022/01/29 03:12:15;;;;;;;;;;;-2.30;84.40;;;-3.88;80.41;96615.31;3986927;34;20230;-84
2022/01/29 03:14:43;;;;;;;;;;;-2.30;84.40;;;-3.89;80.44;96620.81;3986265;34;19908;-83
2022/01/29 03:17:12;;;;;;;;;;;-2.40;84.30;;;-3.89;80.18;96621.66;4006954;34;20237;-83
2022/01/29 03:19:40;;;;;;;;;;;-2.30;84.30;;;-3.87;80.28;96621.50;4031880;34;19912;-84
2022/01/29 03:22:09;;;;;;;;;;;-2.40;84.30;;;-3.89;80.54;96635.03;4015009;34;20258;-84
2022/01/29 03:24:37;;;;;;;;;;;-2.30;84.40;;;-3.87;80.15;96634.88;4007303;34;19908;-83
2022/01/29 03:27:06;;;;;;;;;;;-2.30;84.30;;;-3.89;80.14;96643.06;3985738;34;20521;-83
2022/01/29 03:29:36;;;;;;;;;;;-2.30;84.40;;;-3.88;80.55;96634.03;3986662;34;20206;-84
2022/01/29 03:32:05;;;;;;;;;;;-2.40;84.20;;;-3.87;80.21;96637.53;4007958;34;19905;-83
2022/01/29 03:34:34;;;;;;;;;;;-2.30;84.40;;;-3.87;80.36;96624.16;3986968;34;20251;-84
2022/01/29 03:37:03;;;;;;;;;;;-2.40;84.20;;;-3.87;80.14;96629.50;3986820;34;19909;-83
2022/01/29 03:39:34;;;;;;;;;;;-2.30;84.40;;;-3.87;80.11;96637.53;3986999;34;20237;-84
2022/01/29 03:42:06;;;;;;;;;;;-2.30;84.30;;;-3.87;80.42;96635.69;3987364;34;20231;-83
2022/01/29 03:44:36;;;;;;;;;;;-2.30;84.40;;;-3.87;80.41;96641.03;3989024;34;20211;-83
2022/01/29 03:47:04;;;;;;;;;;;-2.40;84.30;;;-3.87;80.45;96640.22;3984830;34;20222;-83
2022/01/29 03:49:33;;;;;;;;;;;-2.30;84.30;;;-3.87;80.65;96645.56;3984644;34;20228;-83
2022/01/29 03:52:01;;;;;;;;;;;-2.30;84.30;;;-3.87;80.28;96646.38;3979915;35;20021;-84
2022/01/29 03:54:30;;;;;;;;;;;-2.30;84.40;;;-3.87;80.06;96641.03;3976806;35;20223;-84
2022/01/29 03:56:58;;;;;;;;;;;-2.40;84.30;;;-3.86;80.52;96642.72;3975038;35;19912;-83
2022/01/29 03:59:27;;;;;;;;;;;-2.30;84.40;;;-3.86;80.37;96647.22;3997569;35;20317;-83
2022/01/29 04:01:57;;;;;;;;;;;-2.30;84.40;;;-3.86;80.26;96658.75;4000585;35;20459;-83
2022/01/29 04:04:25;;;;;;;;;;;-2.40;84.30;;;-3.87;80.44;96648.25;4000222;35;20268;-83
2022/01/29 04:06:54;;;;;;;;;;;-2.30;84.30;;;-3.85;80.36;96654.25;4000141;35;19909;-83
2022/01/29 04:09:23;;;;;;;;;;;-2.30;84.40;;;-3.85;80.15;96664.97;4000255;35;19905;-83
2022/01/29 04:11:51;;;;;;;;;;;-2.30;84.40;;;-3.85;80.32;96659.59;3999676;35;20209;-84
2022/01/29 04:14:20;;;;;;;;;;;-2.30;84.30;;;-3.86;80.53;96666.78;3978737;34;19905;-84
2022/01/29 04:16:49;;;;;;;;;;;-2.30;84.40;;;-3.85;80.37;96672.97;4001644;34;20219;-83
2022/01/29 04:19:19;;;;;;;;;;;-2.30;84.40;;;-3.87;80.24;96666.97;4001321;34;20462;-84
2022/01/29 04:21:47;;;;;;;;;;;-2.30;84.40;;;-3.86;80.26;96673.97;4001807;34;20220;-83
2022/01/29 04:24:15;;;;;;;;;;;-2.30;84.40;;;-3.86;80.37;96677.47;3979809;34;19905;-83
2022/01/29 04:26:44;;;;;;;;;;;-2.30;84.40;;;-3.84;80.29;96682.69;4002083;34;20208;-83
2022/01/29 04:29:13;;;;;;;;;;;-2.30;84.40;;;-3.85;80.31;96676.47;3980937;34;20246;-83
2022/01/29 04:31:47;;;;;;;;;;;-2.30;84.40;;;-3.84;80.32;96685.34;3982780;34;20312;-83
2022/01/29 04:34:16;;;;;;;;;;;-2.30;84.40;;;-3.83;80.27;96691.53;3986642;34;19912;-83
2022/01/29 04:36:45;;;;;;;;;;;-2.30;85.10;;;-3.85;79.96;96689.84;4008490;34;20469;-83
2022/01/29 04:39:14;;;;;;;;;;;-2.30;84.40;;;-3.84;80.25;96701.41;3986839;34;20131;-83
2022/01/29 04:41:43;;;;;;;;;;;-2.30;84.30;;;-3.85;80.57;96697.88;3987219;34;20224;-84
2022/01/29 04:44:11;;;;;;;;;;;-2.30;84.30;;;-3.83;80.40;96704.91;3987257;34;19912;-83
2022/01/29 04:46:40;;;;;;;;;;;-2.30;84.40;;;-3.85;79.89;96702.41;3987321;34;20224;-83
2022/01/29 04:49:08;;;;;;;;;;;-2.30;84.40;;;-3.84;80.24;96709.44;3989476;34;19905;-84
2022/01/29 04:51:37;;;;;;;;;;;-2.30;84.30;;;-3.83;80.20;96718.28;4010176;34;19904;-83
2022/01/29 04:54:06;;;;;;;;;;;-2.30;84.40;;;-3.84;80.40;96720.13;3988460;34;20476;-83
2022/01/29 04:56:35;;;;;;;;;;;-2.30;84.30;;;-3.86;80.25;96727.47;3988608;34;20199;-84
2022/01/29 04:59:04;;;;;;;;;;;-2.30;84.30;;;-3.83;80.24;96734.31;3988791;34;20200;-84
2022/01/29 05:01:32;;;;;;;;;;;-2.30;84.40;;;-3.83;80.27;96740.53;4010560;34;20227;-83
2022/01/29 05:04:01;;;;;;;;;;;-2.30;84.40;;;-3.85;80.32;96739.84;4009693;34;19905;-83
2022/01/29 05:06:29;;;;;;;;;;;-2.30;84.30;;;-3.84;80.34;96746.88;4010799;34;20206;-84
2022/01/29 05:08:58;;;;;;;;;;;-2.30;84.30;;;-3.85;80.56;96745.19;3988486;34;19912;-83
2022/01/29 05:11:28;;;;;;;;;;;-2.30;84.40;;;-3.82;80.31;96755.59;3988786;34;20203;-83
2022/01/29 05:13:57;;;;;;;;;;;-2.30;84.30;;;-3.83;80.06;96750.38;3988535;34;19951;-84
2022/01/29 05:16:41;;;;;;;;;;;-2.30;84.30;;;-3.83;80.20;96753.06;3988522;34;20473;-83
2022/01/29 05:27:29;;;;;;;;;;;-2.30;84.30;;;-3.82;79.91;96770.78;4009891;34;19931;-83
2022/01/29 05:29:57;;;;;;;;;;;-2.30;84.40;;;-3.82;80.21;96766.28;3988408;34;20313;-83
2022/01/29 05:32:26;;;;;;;;;;;-2.30;84.40;;;-3.84;80.24;96768.28;3989273;34;19912;-83
2022/01/29 05:34:54;;;;;;;;;;;-2.30;84.30;;;-3.83;80.11;96772.63;4009787;34;20218;-83
2022/01/29 05:37:23;;;;;;;;;;;-2.30;84.30;;;-3.83;80.47;96764.59;3988404;34;19912;-83
2022/01/29 05:39:51;;;;;;;;;;;-2.30;84.30;;;-3.83;80.11;96775.31;3988169;34;20221;-83
2022/01/29 05:42:19;;;;;;;;;;;-2.30;84.30;;;-3.82;80.11;96782.34;3988031;34;19905;-83
2022/01/29 05:44:49;;;;;;;;;;;-2.30;84.30;;;-3.82;80.77;96779.66;3995359;34;20232;-83
2022/01/29 05:47:18;;;;;;;;;;;-2.30;84.30;;;-3.82;80.14;96786.81;3988022;34;20201;-83
2022/01/29 05:49:46;;;;;;;;;;;-2.30;84.30;;;-3.81;79.94;96792.03;3988185;34;19912;-84
2022/01/29 05:52:15;;;;;;;;;;;-2.30;84.30;;;-3.81;80.12;96789.34;3987992;34;20485;-83
2022/01/29 05:54:43;;;;;;;;;;;-2.30;84.30;;;-3.82;80.47;96798.38;4009508;34;19986;-83
2022/01/29 05:57:12;;;;;;;;;;;-2.30;84.30;;;-3.81;80.22;96799.19;3988531;34;20231;-84
2022/01/29 05:59:40;;;;;;;;;;;-2.30;84.30;;;-3.81;80.28;96802.72;3987985;34;20228;-83
2022/01/29 06:02:10;;;;;;;;;;;-2.30;84.30;;;-3.81;80.12;96800.06;3987083;34;20229;-84
2022/01/29 06:04:39;;;;;;;;;;;-2.30;84.30;;;-3.81;80.11;96808.09;3987461;34;20112;-84
2022/01/29 06:07:07;;;;;;;;;;;-2.30;84.30;;;-3.80;80.02;96811.59;3986674;34;20199;-84
2022/01/29 06:09:36;;;;;;;;;;;-2.30;84.30;;;-3.79;80.23;96813.25;3987631;34;19905;-84
2022/01/29 06:12:05;;;;;;;;;;;-2.30;84.30;;;-3.79;80.20;96818.59;3986633;34;20240;-84
2022/01/29 06:14:33;;;;;;;;;;;-2.30;84.30;;;-3.79;80.40;96815.94;4007562;34;19912;-85
2022/01/29 06:17:02;;;;;;;;;;;-2.30;84.30;;;-3.80;80.19;96817.75;3986195;34;20241;-84
2022/01/29 06:19:32;;;;;;;;;;;-2.30;84.40;;;-3.78;80.19;96829.13;4008909;34;19905;-84
2022/01/29 06:22:06;;;;;;;;;;;-2.20;84.30;;;-3.78;80.24;96839.84;3989685;34;19905;-84
2022/01/29 06:24:35;;;;;;;;;;;-2.20;84.30;;;-3.78;80.20;96831.81;4010504;34;19934;-85
2022/01/29 06:27:04;;;;;;;;;;;-2.30;84.30;;;-3.78;80.04;96837.16;3987569;34;20527;-84
2022/01/29 06:29:32;;;;;;;;;;;-2.30;84.30;;;-3.77;80.37;96844.19;3989617;34;20216;-85
2022/01/29 06:32:00;;;;;;;;;;;-2.20;84.30;;;-3.78;80.11;96845.19;3988521;34;20112;-85
2022/01/29 06:34:30;;;;;;;;;;;-2.30;84.20;;;-3.77;80.07;96849.53;4012165;34;20206;-85
2022/01/29 06:36:59;;;;;;;;;;;-2.20;84.20;;;-3.76;80.16;96845.88;4010189;34;20247;-85
2022/01/29 06:39:27;;;;;;;;;;;-2.30;84.20;;;-3.76;80.40;96848.53;3987733;34;19905;-84
2022/01/29 06:41:56;;;;;;;;;;;-2.30;84.20;;;-3.75;80.25;96846.72;3990995;34;20239;-85
2022/01/29 06:44:24;;;;;;;;;;;-2.20;84.20;;;-3.76;80.23;96845.88;3990569;34;20451;-85
2022/01/29 06:46:53;;;;;;;;;;;-2.20;84.30;;;-3.74;80.35;96845.69;4008373;34;19912;-85
2022/01/29 06:49:21;;;;;;;;;;;-2.20;84.20;;;-3.77;80.19;96849.53;3988047;34;20561;-85
2022/01/29 06:51:53;;;;;;;;;;;-2.20;84.30;;;-3.75;80.24;96852.88;3979900;34;19905;-85
2022/01/29 06:54:21;;;;;;;;;;;-2.20;84.20;;;-3.74;80.04;96859.91;3980084;34;20212;-85
2022/01/29 06:56:50;;;;;;;;;;;-2.20;84.20;;;-3.74;80.03;96854.56;3978858;34;19905;-85
2022/01/29 06:59:18;;;;;;;;;;;-2.20;84.20;;;-3.75;80.22;96858.25;3979892;34;20290;-85
2022/01/29 07:01:47;;;;;;;;;;;-2.20;84.20;;;-3.73;80.06;96866.94;4001121;34;19946;-85
2022/01/29 07:04:15;;;;;;;;;;;-2.20;84.20;;;-3.74;80.15;96864.41;4000981;34;20217;-85
2022/01/29 07:06:43;;;;;;;;;;;-2.20;84.20;;;-3.72;80.30;96873.97;3981764;34;19912;-85
2022/01/29 07:09:13;;;;;;;;;;;-2.20;84.10;;;-3.72;80.37;96871.28;3982758;34;20222;-84
2022/01/29 07:11:43;;;;;;;;;;;-2.20;84.10;;;-3.72;79.90;96868.63;3976824;34;20253;-85
2022/01/29 07:14:16;;;;;;;;;;;-2.20;84.20;;;-3.72;80.18;96868.63;3967104;35;20228;-85
2022/01/29 07:16:46;;;;;;;;;;;-2.20;84.20;;;-3.72;80.05;96863.28;3951303;35;20592;-85
2022/01/29 07:19:14;;;;;;;;;;;-2.20;84.20;;;-3.71;80.20;96870.28;3950930;35;20234;-85
2022/01/29 07:21:42;;;;;;;;;;;-2.20;84.20;;;-3.70;80.24;96871.13;3952271;35;19905;-84
2022/01/29 07:24:12;;;;;;;;;;;-2.20;84.10;;;-3.70;80.24;96877.31;3950912;35;20239;-86
2022/01/29 07:26:41;;;;;;;;;;;-2.20;84.10;;;-3.70;80.03;96874.66;3971604;35;20219;-85
2022/01/29 07:29:10;;;;;;;;;;;-2.20;84.10;;;-3.68;79.57;96879.00;3952771;35;20245;-85
2022/01/29 07:31:39;;;;;;;;;;;-2.20;84.10;;;-3.69;79.96;96878.16;3964583;34;20245;-85
2022/01/29 07:34:07;;;;;;;;;;;-2.20;84.10;;;-3.67;80.13;96880.66;3979288;34;20232;-85
2022/01/29 07:36:36;;;;;;;;;;;-2.10;84.20;;;-3.69;80.05;96872.78;3977803;34;20204;-85
2022/01/29 07:39:04;;;;;;;;;;;-2.10;84.20;;;-3.68;79.85;96873.66;3978740;34;20241;-85
2022/01/29 07:41:34;;;;;;;;;;;-2.10;84.20;;;-3.65;80.00;96873.31;4003913;34;20570;-84
2022/01/29 07:44:09;;;;;;;;;;;-2.10;84.10;;;-3.66;79.84;96883.19;4006409;34;20209;-85
2022/01/29 07:46:38;;;;;;;;;;;-2.10;84.10;;;-3.64;80.24;96883.00;3983928;34;19916;-85
2022/01/29 07:49:06;;;;;;;;;;;-2.10;84.10;;;-3.64;79.63;96880.31;4001269;34;20193;-85
2022/01/29 07:51:35;;;;;;;;;;;-2.10;84.10;;;-3.64;80.12;96885.69;3982239;35;19921;-85
2022/01/29 07:54:04;;;;;;;;;;;-2.10;84.10;;;-3.63;79.67;96895.38;3984991;35;19905;-85
2022/01/29 07:56:34;;;;;;;;;;;-2.10;84.00;;;-3.62;80.01;96894.38;3983657;35;19905;-85
2022/01/29 07:59:03;;;;;;;;;;;-2.10;84.00;;;-3.62;80.11;96897.06;4006248;35;19928;-85
2022/01/29 08:01:31;;;;;;;;;;;-2.10;84.00;;;-3.63;80.21;96898.91;3984780;35;20208;-85
2022/01/29 08:04:00;;;;;;;;;;;-2.10;84.00;;;-3.62;80.00;96908.63;4007045;35;19905;-83
2022/01/29 08:06:29;;;;;;;;;;;-2.10;84.00;;;-3.62;80.06;96899.75;3984098;35;19905;-83
2022/01/29 08:08:58;;;;;;;;;;;-2.10;84.00;;;-3.62;80.01;96902.41;3979535;35;19905;-83
2022/01/29 08:11:26;;;;;;;;;;;-2.10;84.10;;;-3.62;80.03;96899.75;3984275;35;20223;-83
2022/01/29 08:13:56;;;;;;;;;;;-2.10;84.10;;;-3.62;80.17;96899.75;4007582;35;20229;-83
2022/01/29 08:16:25;;;;;;;;;;;-2.10;84.00;;;-3.61;79.87;96896.88;3984253;35;20176;-83
2022/01/29 08:18:53;;;;;;;;;;;-2.10;84.10;;;-3.59;79.92;96902.91;4006105;35;20568;-83
2022/01/29 08:21:21;;;;;;;;;;;-2.10;84.00;;;-3.58;80.19;96904.59;3984764;35;19905;-83
2022/01/29 08:23:50;;;;;;;;;;;-2.00;84.00;;;-3.54;79.82;96913.13;3986694;35;20707;-83
2022/01/29 08:26:18;;;;;;;;;;;-2.00;84.00;;;-3.52;79.77;96916.47;3986293;34;19912;-84
2022/01/29 08:28:47;;;;;;;;;;;-2.00;83.90;;;-3.50;79.79;96913.66;3986452;35;20539;-83
2022/01/29 08:31:17;;;;;;;;;;;-2.00;83.80;;;-3.48;79.26;96915.16;4008344;35;19909;-84
2022/01/29 08:33:45;;;;;;;;;;;-2.00;83.60;;;-3.46;79.61;96921.19;3986807;35;20205;-84
2022/01/29 08:36:14;;;;;;;;;;;-2.00;83.50;;;-3.45;79.94;96917.53;3985874;35;20255;-84
2022/01/29 08:38:42;;;;;;;;;;;-1.90;83.60;;;-3.43;79.47;96915.53;3986403;35;19905;-83
2022/01/29 08:41:11;;;;;;;;;;;-1.90;83.50;;;-3.41;79.41;96918.84;4008140;35;19905;-84
2022/01/29 08:43:39;;;;;;;;;;;-1.90;83.50;;;-3.38;79.30;96917.69;3986074;35;20524;-84
2022/01/29 08:46:08;;;;;;;;;;;-1.90;83.40;;;-3.38;79.42;96915.03;3977636;35;20228;-85
2022/01/29 08:48:38;;;;;;;;;;;-1.80;83.30;;;-3.34;79.17;96918.19;3973781;35;20165;-85
2022/01/29 08:51:06;;;;;;;;;;;-1.80;83.20;;;-3.33;79.41;96919.88;3986967;35;20221;-85
2022/01/29 08:53:35;;;;;;;;;;;-1.80;83.20;;;-3.30;78.91;96915.03;4008521;35;19905;-85
2022/01/29 08:56:05;;;;;;;;;;;-1.80;83.00;;;-3.27;79.16;96919.19;4005989;35;20555;-84
2022/01/29 08:58:33;;;;;;;;;;;-1.70;83.10;;;-3.25;79.00;96923.41;4006244;35;20229;-84
2022/01/29 09:01:03;;;;;;;;;;;-1.70;83.10;;;-3.24;78.80;96925.09;4007407;34;19905;-85
2022/01/29 09:03:32;;;;;;;;;;;-1.70;83.00;;;-3.21;79.19;96923.06;4008423;34;19928;-83
2022/01/29 09:06:01;;;;;;;;;;;-1.70;82.90;;;-3.19;78.73;96921.91;4030418;34;20221;-84
2022/01/29 09:08:30;;;;;;;;;;;-1.70;82.80;;;-3.16;78.77;96934.94;4032451;34;20312;-84
2022/01/29 09:10:59;;;;;;;;;;;-1.70;82.90;;;-3.09;78.97;96922.59;4010093;34;19905;-85
2022/01/29 09:13:27;;;;;;;;;;;-1.60;82.80;;;-3.02;78.76;96917.38;4010792;34;20205;-83
2022/01/29 09:15:56;;;;;;;;;;;-1.50;82.80;;;-2.93;78.56;96926.28;4010149;34;20230;-85
2022/01/29 09:18:24;;;;;;;;;;;-1.40;82.80;;;-2.89;78.19;96914.19;4024676;34;20131;-85
2022/01/29 09:20:53;;;;;;;;;;;-1.40;82.40;;;-2.82;78.08;96920.56;3991944;34;20247;-85
2022/01/29 09:23:23;;;;;;;;;;;-1.30;82.40;;;-2.79;78.35;96927.44;3990291;34;19905;-85
2022/01/29 09:25:51;;;;;;;;;;;-1.30;82.20;;;-2.79;77.87;96924.75;3989425;34;19912;-84
2022/01/29 09:28:21;;;;;;;;;;;-1.30;81.90;;;-2.79;77.93;96932.78;3990376;34;20255;-85
2022/01/29 09:30:49;;;;;;;;;;;-1.30;81.80;;;-2.81;77.57;96930.28;3991240;34;19905;-85
2022/01/29 09:33:18;;;;;;;;;;;-1.30;81.80;;;-2.81;77.85;96929.44;3988392;34;20649;-85
2022/01/29 09:35:46;;;;;;;;;;;-1.30;81.70;;;-2.83;77.39;96921.56;4009091;34;19917;-85
2022/01/29 09:38:15;;;;;;;;;;;-1.30;81.50;;;-2.86;78.21;96916.53;3985661;34;20234;-85
2022/01/29 09:40:45;;;;;;;;;;;-1.30;81.70;;;-2.88;78.08;96918.56;3986209;34;19912;-85
2022/01/29 09:43:13;;;;;;;;;;;-1.30;81.70;;;-2.91;78.07;96926.09;3986086;34;19904;-85
2022/01/29 09:45:43;;;;;;;;;;;-1.40;81.70;;;-2.93;78.32;96926.28;4007664;34;20511;-84
2022/01/29 09:48:11;;;;;;;;;;;-1.40;81.70;;;-2.96;77.86;96923.91;4006485;34;19905;-85
2022/01/29 09:50:40;;;;;;;;;;;-1.40;81.70;;;-2.98;78.10;96933.97;4007193;34;20216;-83
2022/01/29 09:53:08;;;;;;;;;;;-1.40;81.90;;;-3.01;78.16;96924.44;3985363;34;19905;-84
2022/01/29 09:55:37;;;;;;;;;;;-1.50;82.00;;;-3.02;78.53;96929.94;3985288;34;20216;-85
2022/01/29 09:58:07;;;;;;;;;;;-1.50;82.10;;;-3.03;78.61;96922.94;3985007;34;19905;-85
2022/01/29 10:00:35;;;;;;;;;;;-1.50;82.20;;;-3.05;78.58;96922.25;3985986;34;19905;-85
2022/01/29 10:03:19;;;;;;;;;;;-1.50;82.20;;;-3.08;78.40;96918.91;4007142;34;20214;-85
2022/01/29 10:05:49;;;;;;;;;;;-1.50;82.30;;;-3.09;78.80;96911.00;3985785;34;20204;-86
2022/01/29 10:08:18;;;;;;;;;;;-1.50;82.40;;;-3.08;78.72;96920.72;3985082;34;20547;-84
2022/01/29 10:10:47;;;;;;;;;;;-1.60;82.40;;;-3.10;78.59;96910.19;3985394;34;19905;-85
2022/01/29 10:13:29;;;;;;;;;;;-1.60;82.40;;;-3.10;78.44;96910.19;4007321;34;20575;-85
2022/01/29 10:16:10;;;;;;;;;;;-1.60;82.40;;;-3.13;78.86;96905.16;4031111;34;20203;-84
2022/01/29 10:18:39;;;;;;;;;;;-1.60;82.50;;;-3.14;78.90;96903.47;4009876;34;20206;-84
2022/01/29 10:21:14;;;;;;;;;;;-1.60;82.50;;;-3.13;78.49;96905.16;4009604;34;19905;-85
2022/01/29 10:23:43;;;;;;;;;;;-1.60;82.70;;;-3.14;78.76;96903.47;4009557;34;19905;-85
2022/01/29 10:26:17;;;;;;;;;;;-1.60;82.60;;;-3.15;78.75;96891.09;4024425;34;20050;-84
2022/01/29 10:28:53;;;;;;;;;;;-1.60;82.60;;;-3.16;78.89;96892.09;3986094;34;20099;-85
2022/01/29 10:31:21;;;;;;;;;;;-1.60;82.70;;;-3.17;78.63;96893.13;3989124;34;19905;-85
2022/01/29 10:33:50;;;;;;;;;;;-1.60;82.70;;;-3.17;78.93;96894.94;3987614;34;20210;-85
2022/01/29 10:36:19;;;;;;;;;;;-1.60;82.70;;;-3.17;78.90;96893.13;3985602;34;19932;-85
2022/01/29 10:38:51;;;;;;;;;;;-1.60;82.80;;;-3.18;78.89;96895.94;4029866;34;19905;-85
2022/01/29 10:41:24;;;;;;;;;;;-1.60;82.70;;;-3.20;79.27;96888.09;3993315;34;19912;-84
2022/01/29 10:44:09;;;;;;;;;;;-1.70;82.90;;;-3.20;79.01;96890.78;4008641;34;20200;-84
2022/01/29 10:46:40;;;;;;;;;;;-1.70;82.90;;;-3.20;79.21;96880.06;3984819;34;20581;-84
2022/01/29 10:49:08;;;;;;;;;;;-1.70;82.90;;;-3.21;78.70;96878.38;3980865;34;19916;-85
2022/01/29 10:51:37;;;;;;;;;;;-1.60;82.90;;;-3.19;79.04;96870.16;3981971;34;20219;-86
2022/01/29 10:54:19;;;;;;;;;;;-1.70;83.20;;;-3.17;79.42;96871.69;3981140;34;20479;-85
2022/01/29 10:56:57;;;;;;;;;;;-1.60;83.30;;;-3.15;79.43;96875.03;4001474;34;20232;-85
2022/01/29 10:59:27;;;;;;;;;;;-1.60;83.20;;;-3.17;79.22;96873.53;3979822;34;19998;-85
2022/01/29 11:01:58;;;;;;;;;;;-1.60;83.10;;;-3.17;78.79;96874.38;3979724;34;20240;-84
2022/01/29 11:04:28;;;;;;;;;;;-1.60;83.00;;;-3.18;79.13;96880.75;3979286;34;20200;-85
2022/01/29 11:07:00;;;;;;;;;;;-1.70;83.00;;;-3.20;79.28;96872.03;3979724;34;19946;-85
2022/01/29 11:09:29;;;;;;;;;;;-1.60;83.10;;;-3.19;79.41;96872.84;3981218;34;19917;-84
2022/01/29 11:11:58;;;;;;;;;;;-1.70;83.00;;;-3.19;79.22;96883.56;3980803;34;19905;-85
2022/01/29 11:14:28;;;;;;;;;;;-1.60;83.30;;;-3.20;78.94;96877.38;4003037;34;19912;-84
2022/01/29 11:16:56;;;;;;;;;;;-1.70;83.00;;;-3.20;79.39;96882.75;4002587;34;19905;-84
2022/01/29 11:19:25;;;;;;;;;;;-1.70;83.20;;;-3.20;79.06;96885.41;3985920;34;20229;-84
2022/01/29 11:21:54;;;;;;;;;;;-1.70;83.10;;;-3.21;78.90;96882.88;4008065;34;19912;-84
2022/01/29 11:24:24;;;;;;;;;;;-1.70;83.20;;;-3.21;79.13;96880.22;3985565;34;20232;-84
2022/01/29 11:26:52;;;;;;;;;;;-1.70;83.20;;;-3.20;79.28;96887.25;3985122;34;19912;-84
2022/01/29 11:29:33;;;;;;;;;;;-1.70;83.20;;;-3.20;79.12;96898.81;3985601;34;20208;-85
2022/01/29 11:32:32;;;;;;;;;;;-1.70;83.20;;;-3.21;78.87;96897.13;3999387;34;19906;-85
2022/01/29 11:35:12;;;;;;;;;;;-1.70;83.10;;;-3.21;79.33;96897.13;3974817;35;20214;-85